createdAt,value
2022-09-21T00:00:30.310Z,16.80
2022-09-21T00:03:18.190Z,16.80
2022-09-21T00:06:06.472Z,16.70
2022-09-21T00:08:54.972Z,16.70
2022-09-21T00:11:42.193Z,16.70
2022-09-21T00:14:31.360Z,16.70
2022-09-21T00:17:19.115Z,16.70
2022-09-21T00:20:07.725Z,16.70
2022-09-21T00:22:55.600Z,16.60
2022-09-21T00:25:43.013Z,16.60
2022-09-21T00:28:30.261Z,16.60
2022-09-21T00:31:18.908Z,16.60
2022-09-21T00:34:07.972Z,16.60
2022-09-21T00:36:55.260Z,16.50
2022-09-21T00:39:42.639Z,16.50
2022-09-21T00:42:33.354Z,16.50
2022-09-21T00:45:22.061Z,16.40
2022-09-21T00:48:11.985Z,16.40
2022-09-21T00:51:05.345Z,16.40
2022-09-21T00:57:05.545Z,16.40
2022-09-21T00:59:57.469Z,16.40
2022-09-21T01:02:46.182Z,16.30
2022-09-21T01:05:36.119Z,16.30
2022-09-21T01:08:30.157Z,16.20
2022-09-21T01:11:34.735Z,16.20
2022-09-21T01:14:43.980Z,16.20
2022-09-21T01:21:20.810Z,16.20
2022-09-21T01:24:54.747Z,16.10
2022-09-21T01:28:10.569Z,16.10
2022-09-21T01:31:06.103Z,16.10
2022-09-21T01:33:59.435Z,16.10
2022-09-21T01:36:49.231Z,16.00
2022-09-21T01:39:38.573Z,16.00
2022-09-21T01:42:28.794Z,16.00
2022-09-21T01:45:19.960Z,16.00
2022-09-21T01:48:10.483Z,16.00
2022-09-21T01:50:59.552Z,16.00
2022-09-21T01:53:52.282Z,15.90
2022-09-21T01:56:44.411Z,15.90
2022-09-21T01:59:40.210Z,15.80
2022-09-21T02:02:35.689Z,15.80
2022-09-21T02:05:28.295Z,15.80
2022-09-21T02:08:15.888Z,15.80
2022-09-21T02:11:06.776Z,15.70
2022-09-21T02:13:56.591Z,15.70
2022-09-21T02:16:56.407Z,15.70
2022-09-21T02:19:52.468Z,15.70
2022-09-21T02:22:57.247Z,15.60
2022-09-21T02:25:51.477Z,15.60
2022-09-21T02:28:45.444Z,15.60
2022-09-21T02:31:39.727Z,15.50
2022-09-21T02:34:35.053Z,15.50
2022-09-21T02:37:33.566Z,15.50
2022-09-21T02:40:30.773Z,15.40
2022-09-21T02:43:23.832Z,15.40
2022-09-21T02:46:16.287Z,15.40
2022-09-21T02:49:09.320Z,15.40
2022-09-21T02:52:02.367Z,15.30
2022-09-21T02:54:53.590Z,15.30
2022-09-21T02:57:42.835Z,15.30
2022-09-21T03:00:30.523Z,15.30
2022-09-21T03:03:20.145Z,15.30
2022-09-21T03:06:08.281Z,15.20
2022-09-21T03:08:58.593Z,15.20
2022-09-21T03:11:45.877Z,15.20
2022-09-21T03:14:34.545Z,15.20
2022-09-21T03:17:22.000Z,15.20
2022-09-21T03:20:10.548Z,15.10
2022-09-21T03:22:57.808Z,15.10
2022-09-21T03:25:46.359Z,15.10
2022-09-21T03:28:33.842Z,15.10
2022-09-21T03:31:23.372Z,15.10
2022-09-21T03:34:11.421Z,15.00
2022-09-21T03:36:58.773Z,15.00
2022-09-21T03:39:47.330Z,15.00
2022-09-21T03:42:34.720Z,15.00
2022-09-21T03:45:23.041Z,14.90
2022-09-21T03:48:13.068Z,14.90
2022-09-21T03:51:00.600Z,14.90
2022-09-21T03:53:48.009Z,14.80
2022-09-21T03:56:35.329Z,14.80
2022-09-21T03:59:22.531Z,14.80
2022-09-21T04:02:09.942Z,14.80
2022-09-21T04:04:58.835Z,14.80
2022-09-21T04:07:47.012Z,14.70
2022-09-21T04:10:34.328Z,14.70
2022-09-21T04:13:21.486Z,14.70
2022-09-21T04:16:09.710Z,14.70
2022-09-21T04:18:57.287Z,14.70
2022-09-21T04:21:46.433Z,14.70
2022-09-21T04:24:33.712Z,14.70
2022-09-21T04:27:21.007Z,14.60
2022-09-21T04:30:11.361Z,14.60
2022-09-21T04:32:58.904Z,14.60
2022-09-21T04:35:46.095Z,14.60
2022-09-21T04:38:34.994Z,14.60
2022-09-21T04:41:22.691Z,14.60
2022-09-21T04:44:10.216Z,14.50
2022-09-21T04:46:57.795Z,14.50
2022-09-21T04:49:45.169Z,14.50
2022-09-21T04:52:32.487Z,14.50
2022-09-21T04:55:21.271Z,14.50
2022-09-21T04:58:08.758Z,14.50
2022-09-21T05:00:56.752Z,14.40
2022-09-21T05:03:44.443Z,14.40
2022-09-21T05:06:32.968Z,14.40
2022-09-21T05:09:37.816Z,14.40
2022-09-21T05:12:26.473Z,14.30
2022-09-21T05:15:13.969Z,14.40
2022-09-21T05:18:09.139Z,14.30
2022-09-21T05:20:57.108Z,14.30
2022-09-21T05:23:47.580Z,14.30
2022-09-21T05:26:34.925Z,14.20
2022-09-21T05:29:23.990Z,14.20
2022-09-21T05:32:19.869Z,14.20
2022-09-21T05:35:19.412Z,14.20
2022-09-21T05:38:14.423Z,14.10
2022-09-21T05:41:04.020Z,14.10
2022-09-21T05:43:52.170Z,14.10
2022-09-21T05:46:43.680Z,14.10
2022-09-21T05:49:47.975Z,14.10
2022-09-21T05:52:42.913Z,14.10
2022-09-21T05:55:44.369Z,14.10
2022-09-21T05:58:43.000Z,14.10
2022-09-21T06:01:47.697Z,14.10
2022-09-21T06:04:17.178Z,14.10
2022-09-21T06:06:46.186Z,14.00
2022-09-21T06:09:15.085Z,14.00
2022-09-21T06:11:44.093Z,14.00
2022-09-21T06:14:13.023Z,14.10
2022-09-21T06:16:44.406Z,14.10
2022-09-21T06:19:14.648Z,14.10
2022-09-21T06:21:43.908Z,14.10
2022-09-21T06:24:12.901Z,14.10
2022-09-21T06:26:41.870Z,14.20
2022-09-21T06:29:10.767Z,14.30
2022-09-21T06:31:39.780Z,14.20
2022-09-21T06:34:10.083Z,14.30
2022-09-21T06:36:39.061Z,14.30
2022-09-21T06:39:08.029Z,14.50
2022-09-21T06:41:37.022Z,14.40
2022-09-21T06:44:12.271Z,14.50
2022-09-21T06:46:41.255Z,14.50
2022-09-21T06:49:11.890Z,14.60
2022-09-21T06:51:40.887Z,14.60
2022-09-21T06:54:10.088Z,14.70
2022-09-21T06:56:39.003Z,14.70
2022-09-21T06:59:08.368Z,14.80
2022-09-21T07:01:37.462Z,14.90
2022-09-21T07:04:09.267Z,14.90
2022-09-21T07:06:39.707Z,15.00
2022-09-21T07:11:59.885Z,15.10
2022-09-21T07:14:28.829Z,15.20
2022-09-21T07:16:57.796Z,15.30
2022-09-21T07:19:27.011Z,15.40
2022-09-21T07:21:57.554Z,15.50
2022-09-21T07:24:26.520Z,15.60
2022-09-21T07:26:55.475Z,15.60
2022-09-21T07:29:24.501Z,15.70
2022-09-21T07:31:53.544Z,15.80
2022-09-21T07:37:06.357Z,16.00
2022-09-21T07:39:35.580Z,16.10
2022-09-21T07:42:04.649Z,16.20
2022-09-21T07:44:34.256Z,16.20
2022-09-21T07:47:03.533Z,16.30
2022-09-21T07:49:32.581Z,16.40
2022-09-21T07:52:04.362Z,16.50
2022-09-21T07:54:36.112Z,16.60
2022-09-21T07:57:25.007Z,16.70
2022-09-21T08:00:04.543Z,16.80
2022-09-21T08:41:48.521Z,18.50
2022-09-21T08:48:12.294Z,18.90
2022-09-21T09:03:47.371Z,19.40
2022-09-21T09:06:49.225Z,19.60
2022-09-21T09:14:12.820Z,19.90
2022-09-21T09:17:48.054Z,20.10
2022-09-21T09:20:29.504Z,20.20
2022-09-21T09:23:08.529Z,20.30
2022-09-21T09:25:41.019Z,20.40
2022-09-21T09:28:28.228Z,20.50
2022-09-21T09:31:08.102Z,20.60
2022-09-21T09:33:51.023Z,20.80
2022-09-21T09:36:40.273Z,20.80
2022-09-21T09:39:14.564Z,20.90
2022-09-21T09:42:03.609Z,21.00
2022-09-21T09:44:55.709Z,21.10
2022-09-21T09:47:37.901Z,21.20
2022-09-21T09:50:13.634Z,21.30
2022-09-21T09:52:46.412Z,21.40
2022-09-21T09:55:21.968Z,21.50
2022-09-21T09:57:51.193Z,21.50
2022-09-21T10:00:22.664Z,21.60
2022-09-21T10:02:53.585Z,21.60
2022-09-21T10:05:25.762Z,21.70
2022-09-21T10:07:56.098Z,21.80
2022-09-21T10:10:37.542Z,21.80
2022-09-21T10:13:23.596Z,21.90
2022-09-21T10:15:55.863Z,22.00
2022-09-21T10:18:28.021Z,22.00
2022-09-21T10:21:00.920Z,22.10
2022-09-21T10:23:32.510Z,22.10
2022-09-21T10:26:06.280Z,22.10
2022-09-21T10:28:35.881Z,22.10
2022-09-21T10:31:19.172Z,22.20
2022-09-21T10:33:53.771Z,22.20
2022-09-21T10:36:35.368Z,22.30
2022-09-21T10:39:25.058Z,22.30
2022-09-21T10:42:00.477Z,22.30
2022-09-21T10:44:37.741Z,22.40
2022-09-21T10:47:20.692Z,22.40
2022-09-21T10:49:53.297Z,22.40
2022-09-21T10:52:25.588Z,22.40
2022-09-21T10:54:57.803Z,22.40
2022-09-21T10:57:29.702Z,22.50
2022-09-21T10:59:59.790Z,22.50
2022-09-21T11:02:39.174Z,22.50
2022-09-21T11:05:15.764Z,22.50
2022-09-21T11:07:52.241Z,22.60
2022-09-21T11:10:34.003Z,22.50
2022-09-21T11:13:21.875Z,22.50
2022-09-21T11:15:57.095Z,22.50
2022-09-21T11:18:50.289Z,22.50
2022-09-21T11:21:30.372Z,22.50
2022-09-21T11:24:13.883Z,22.50
2022-09-21T11:26:51.718Z,22.50
2022-09-21T11:29:28.295Z,22.50
2022-09-21T11:32:19.954Z,22.50
2022-09-21T11:35:32.986Z,22.50
2022-09-21T11:38:12.969Z,22.50
2022-09-21T11:41:18.188Z,22.50
2022-09-21T11:44:19.682Z,22.50
2022-09-21T11:47:00.564Z,22.50
2022-09-21T11:49:48.827Z,22.40
2022-09-21T11:52:39.819Z,22.40
2022-09-21T11:55:56.655Z,22.40
2022-09-21T11:58:32.977Z,22.40
2022-09-21T12:01:19.962Z,22.40
2022-09-21T12:04:24.146Z,22.40
2022-09-21T12:07:08.650Z,22.30
2022-09-21T12:09:56.910Z,22.30
2022-09-21T12:12:32.039Z,22.30
2022-09-21T12:15:08.483Z,22.30
2022-09-21T12:17:50.947Z,22.30
2022-09-21T12:20:29.547Z,22.30
2022-09-21T12:23:03.347Z,22.30
2022-09-21T12:25:37.161Z,22.30
2022-09-21T12:28:14.443Z,22.30
2022-09-21T12:30:48.543Z,22.20
2022-09-21T12:33:28.699Z,22.20
2022-09-21T12:36:05.879Z,22.20
2022-09-21T12:38:40.915Z,22.20
2022-09-21T12:41:17.457Z,22.20
2022-09-21T12:43:52.265Z,22.20
2022-09-21T12:46:27.233Z,22.10
2022-09-21T12:49:00.609Z,22.10
2022-09-21T12:51:35.653Z,22.00
2022-09-21T12:54:14.399Z,22.00
2022-09-21T12:56:49.943Z,22.00
2022-09-21T12:59:34.904Z,21.90
2022-09-21T13:02:18.524Z,21.90
2022-09-21T13:05:02.428Z,21.90
2022-09-21T13:08:00.885Z,21.90
2022-09-21T13:10:43.746Z,21.90
2022-09-21T13:13:28.867Z,21.80
2022-09-21T13:16:00.108Z,21.80
2022-09-21T13:18:36.215Z,21.80
2022-09-21T13:21:23.467Z,21.80
2022-09-21T13:24:00.804Z,21.80
2022-09-21T13:26:37.688Z,21.80
2022-09-21T13:29:40.678Z,21.80
2022-09-21T13:32:25.388Z,21.80
2022-09-21T13:35:52.738Z,21.80
2022-09-21T13:38:29.300Z,21.70
2022-09-21T13:41:01.912Z,21.70
2022-09-21T13:44:05.202Z,21.70
2022-09-21T13:46:57.576Z,21.70
2022-09-21T13:49:46.619Z,21.60
2022-09-21T13:52:37.344Z,21.60
2022-09-21T13:55:25.074Z,21.60
2022-09-21T13:57:57.089Z,21.60
2022-09-21T14:00:38.112Z,21.60
2022-09-21T14:03:23.310Z,21.60
2022-09-21T14:05:55.467Z,21.60
2022-09-21T14:08:31.360Z,21.60
2022-09-21T14:11:06.394Z,21.60
2022-09-21T14:13:41.529Z,21.60
2022-09-21T14:16:55.770Z,21.50
2022-09-21T14:20:01.162Z,21.60
2022-09-21T14:22:40.287Z,21.60
2022-09-21T14:25:49.395Z,21.60
2022-09-21T14:28:38.624Z,21.50
2022-09-21T14:31:16.640Z,21.50
2022-09-21T14:33:50.164Z,21.50
2022-09-21T14:36:23.727Z,21.50
2022-09-21T14:38:59.632Z,21.50
2022-09-21T14:41:34.485Z,21.50
2022-09-21T14:44:05.395Z,21.40
2022-09-21T14:47:04.651Z,21.40
2022-09-21T14:50:14.371Z,21.40
2022-09-21T14:53:02.801Z,21.50
2022-09-21T14:55:46.919Z,21.40
2022-09-21T14:58:32.471Z,21.40
2022-09-21T15:01:38.469Z,21.40
2022-09-21T15:04:31.494Z,21.30
2022-09-21T15:07:52.398Z,21.40
2022-09-21T15:10:45.623Z,21.30
2022-09-21T15:13:45.747Z,21.30
2022-09-21T15:16:37.681Z,21.30
2022-09-21T15:19:23.591Z,21.30
2022-09-21T15:21:54.570Z,21.30
2022-09-21T15:24:32.695Z,21.30
2022-09-21T15:27:10.275Z,21.30
2022-09-21T15:29:40.492Z,21.20
2022-09-21T15:32:11.541Z,21.20
2022-09-21T15:34:40.587Z,21.20
2022-09-21T15:37:17.357Z,21.20
2022-09-21T15:39:46.325Z,21.10
2022-09-21T15:42:23.125Z,21.10
2022-09-21T15:45:14.551Z,21.00
2022-09-21T15:47:45.468Z,21.00
2022-09-21T15:50:16.136Z,21.00
2022-09-21T15:52:49.933Z,21.00
2022-09-21T15:55:22.060Z,21.00
2022-09-21T15:57:53.300Z,21.00
2022-09-21T16:00:26.129Z,21.00
2022-09-21T16:03:07.570Z,21.00
2022-09-21T16:05:49.506Z,20.90
2022-09-21T16:08:33.600Z,20.90
2022-09-21T16:11:23.189Z,20.90
2022-09-21T16:14:18.983Z,20.90
2022-09-21T16:17:21.927Z,20.90
2022-09-21T16:20:23.583Z,20.90
2022-09-21T16:22:55.530Z,20.90
2022-09-21T16:25:34.471Z,20.90
2022-09-21T16:28:11.157Z,20.80
2022-09-21T16:30:48.770Z,20.80
2022-09-21T16:33:45.605Z,20.80
2022-09-21T16:36:53.960Z,20.80
2022-09-21T16:39:23.415Z,20.80
2022-09-21T16:41:58.303Z,20.80
2022-09-21T16:44:31.491Z,20.80
2022-09-21T16:47:02.569Z,20.70
2022-09-21T16:49:35.760Z,20.70
2022-09-21T16:52:07.443Z,20.70
2022-09-21T16:54:37.514Z,20.70
2022-09-21T16:57:07.832Z,20.70
2022-09-21T16:59:36.872Z,20.70
2022-09-21T17:02:06.309Z,20.70
2022-09-21T17:04:36.822Z,20.70
2022-09-21T17:07:07.933Z,20.60
2022-09-21T17:09:38.935Z,20.70
2022-09-21T17:12:11.123Z,20.60
2022-09-21T17:14:46.217Z,20.60
2022-09-21T17:17:19.883Z,20.60
2022-09-21T17:19:50.821Z,20.60
2022-09-21T17:22:22.400Z,20.60
2022-09-21T17:24:54.785Z,20.50
2022-09-21T17:27:26.670Z,20.50
2022-09-21T17:29:56.527Z,20.50
2022-09-21T17:32:26.082Z,20.50
2022-09-21T17:35:10.208Z,20.50
2022-09-21T17:37:40.531Z,20.50
2022-09-21T17:40:12.217Z,20.40
2022-09-21T17:42:44.912Z,20.40
2022-09-21T17:45:25.279Z,20.40
2022-09-21T17:47:55.087Z,20.40
2022-09-21T17:50:27.279Z,20.30
2022-09-21T17:53:16.191Z,20.30
2022-09-21T17:55:54.388Z,20.30
2022-09-21T17:58:42.945Z,20.30
2022-09-21T18:01:26.772Z,20.20
2022-09-21T18:03:57.573Z,20.20
2022-09-21T18:06:27.353Z,20.20
2022-09-21T18:08:58.816Z,20.20
2022-09-21T18:12:07.278Z,20.10
2022-09-21T18:14:47.666Z,20.10
2022-09-21T18:17:40.511Z,20.10
2022-09-21T18:20:24.598Z,20.00
2022-09-21T18:23:05.540Z,20.00
2022-09-21T18:25:47.835Z,20.00
2022-09-21T18:28:24.158Z,19.90
2022-09-21T18:31:06.505Z,19.90
2022-09-21T18:33:49.409Z,19.90
2022-09-21T18:36:45.296Z,19.80
2022-09-21T18:39:47.099Z,19.80
2022-09-21T18:42:49.045Z,19.80
2022-09-21T18:45:43.257Z,19.70
2022-09-21T18:48:50.845Z,19.70
2022-09-21T18:51:45.535Z,19.60
2022-09-21T18:54:33.164Z,19.60
2022-09-21T18:57:23.050Z,19.50
2022-09-21T19:00:16.008Z,19.50
2022-09-21T19:03:17.804Z,19.40
2022-09-21T19:06:39.620Z,19.40
2022-09-21T19:09:42.243Z,19.30
2022-09-21T19:12:45.133Z,19.30
2022-09-21T19:16:01.720Z,19.20
2022-09-21T19:19:03.620Z,19.20
2022-09-21T19:21:57.556Z,19.10
2022-09-21T19:24:57.323Z,19.10
2022-09-21T19:27:54.391Z,19.00
2022-09-21T19:30:43.747Z,19.00
2022-09-21T19:33:50.768Z,18.90
2022-09-21T19:39:21.864Z,18.80
2022-09-21T19:42:21.073Z,18.80
2022-09-21T19:45:21.965Z,18.70
2022-09-21T19:48:15.695Z,18.70
2022-09-21T19:51:04.319Z,18.60
2022-09-21T19:54:14.492Z,18.60
2022-09-21T19:57:20.449Z,18.50
2022-09-21T20:00:15.567Z,18.50
2022-09-21T20:06:36.827Z,18.40
2022-09-21T20:09:33.856Z,18.40
2022-09-21T20:12:31.765Z,18.30
2022-09-21T20:15:35.880Z,18.30
2022-09-21T20:18:42.322Z,18.20
2022-09-21T20:21:40.060Z,18.20
2022-09-21T20:24:32.459Z,18.10
2022-09-21T20:27:34.628Z,18.00
2022-09-21T20:30:25.186Z,18.00
2022-09-21T20:33:16.910Z,18.00
2022-09-21T20:36:06.020Z,17.90
2022-09-21T20:38:53.883Z,17.90
2022-09-21T20:41:41.915Z,17.90
2022-09-21T20:44:29.329Z,17.80
2022-09-21T20:47:16.499Z,17.80
2022-09-21T20:50:03.976Z,17.70
2022-09-21T20:52:53.353Z,17.70
2022-09-21T20:55:41.264Z,17.70
2022-09-21T20:58:28.478Z,17.60
2022-09-21T21:01:15.921Z,17.60
2022-09-21T21:04:03.886Z,17.60
2022-09-21T21:06:51.433Z,17.50
2022-09-21T21:09:40.097Z,17.50
2022-09-21T21:12:27.824Z,17.40
2022-09-21T21:15:15.925Z,17.40
2022-09-21T21:18:03.331Z,17.40
2022-09-21T21:20:52.328Z,17.30
2022-09-21T21:23:53.483Z,17.30
2022-09-21T21:27:01.423Z,17.30
2022-09-21T21:29:51.262Z,17.20
2022-09-21T21:32:38.769Z,17.20
2022-09-21T21:35:26.031Z,17.10
2022-09-21T21:38:13.648Z,17.10
2022-09-21T21:41:01.070Z,17.00
2022-09-21T21:43:49.657Z,17.00
2022-09-21T21:46:37.133Z,17.00
2022-09-21T21:49:24.751Z,16.90
2022-09-21T21:52:13.237Z,16.90
2022-09-21T21:55:02.154Z,16.90
2022-09-21T21:57:49.893Z,16.80
2022-09-21T22:00:38.406Z,16.80
2022-09-21T22:03:25.837Z,16.80
2022-09-21T22:06:13.170Z,16.70
2022-09-21T22:09:00.931Z,16.70
2022-09-21T22:11:48.509Z,16.70
2022-09-21T22:14:35.662Z,16.70
2022-09-21T22:17:24.315Z,16.70
2022-09-21T22:20:12.052Z,16.60
2022-09-21T22:22:59.604Z,16.60
2022-09-21T22:25:46.837Z,16.60
2022-09-21T22:28:34.557Z,16.50
2022-09-21T22:31:23.427Z,16.50
2022-09-21T22:34:12.932Z,16.50
2022-09-21T22:37:00.973Z,16.50
2022-09-21T22:39:48.128Z,16.40
2022-09-21T22:42:35.393Z,16.40
2022-09-21T22:45:22.781Z,16.40
2022-09-21T22:48:09.999Z,16.30
2022-09-21T22:50:59.177Z,16.40
2022-09-21T22:53:47.422Z,16.30
2022-09-21T22:56:35.863Z,16.30
2022-09-21T22:59:23.001Z,16.30
2022-09-21T23:02:10.504Z,16.20
2022-09-21T23:04:58.002Z,16.20
2022-09-21T23:07:47.005Z,16.20
2022-09-21T23:10:34.636Z,16.20
2022-09-21T23:13:22.419Z,16.20
2022-09-21T23:16:12.248Z,16.10
2022-09-21T23:19:00.268Z,16.10
2022-09-21T23:21:50.437Z,16.10
2022-09-21T23:24:38.901Z,16.10
2022-09-21T23:27:26.484Z,16.00
2022-09-21T23:30:14.306Z,16.00
2022-09-21T23:33:01.892Z,16.00
2022-09-21T23:35:51.774Z,16.00
2022-09-21T23:38:39.667Z,15.90
2022-09-21T23:41:30.498Z,15.90
2022-09-21T23:44:17.998Z,15.90
2022-09-21T23:47:05.427Z,15.90
2022-09-21T23:49:52.594Z,15.80
2022-09-21T23:52:39.831Z,15.80
2022-09-21T23:55:27.439Z,15.80
2022-09-21T23:58:16.504Z,15.70
